sensor_id;sensor_type;location;lat;lon;timestamp;pressure;altitude;pressure_sealevel;temperature;humidity
42385;BME280;28042;43.986;22.860;2022-12-29T00:01:57;102421.22;;;3.00;100.00
42385;BME280;28042;43.986;22.860;2022-12-29T00:04:22;102416.06;;;2.97;100.00
42385;BME280;28042;43.986;22.860;2022-12-29T00:06:48;102425.53;;;2.90;100.00
42385;BME280;28042;43.986;22.860;2022-12-29T00:09:14;102426.16;;;2.81;100.00
42385;BME280;28042;43.986;22.860;2022-12-29T00:11:40;102432.19;;;2.72;100.00
42385;BME280;28042;43.986;22.860;2022-12-29T00:14:05;102427.22;;;2.66;100.00
42385;BME280;28042;43.986;22.860;2022-12-29T00:16:49;102425.34;;;2.53;100.00
42385;BME280;28042;43.986;22.860;2022-12-29T00:19:14;102432.13;;;2.46;100.00
42385;BME280;28042;43.986;22.860;2022-12-29T00:21:59;102428.31;;;2.36;100.00
42385;BME280;28042;43.986;22.860;2022-12-29T00:24:43;102431.81;;;2.24;100.00
42385;BME280;28042;43.986;22.860;2022-12-29T00:27:27;102427.25;;;2.12;100.00
42385;BME280;28042;43.986;22.860;2022-12-29T00:30:12;102429.34;;;2.07;100.00
42385;BME280;28042;43.986;22.860;2022-12-29T00:32:56;102435.91;;;2.03;100.00
42385;BME280;28042;43.986;22.860;2022-12-29T00:35:44;102435.53;;;1.94;100.00
42385;BME280;28042;43.986;22.860;2022-12-29T00:38:10;102445.19;;;1.84;100.00
42385;BME280;28042;43.986;22.860;2022-12-29T00:40:55;102447.50;;;1.76;100.00
42385;BME280;28042;43.986;22.860;2022-12-29T00:43:39;102431.72;;;1.70;100.00
42385;BME280;28042;43.986;22.860;2022-12-29T00:46:23;102433.06;;;1.63;100.00
42385;BME280;28042;43.986;22.860;2022-12-29T00:48:48;102445.75;;;1.47;100.00
42385;BME280;28042;43.986;22.860;2022-12-29T00:51:32;102440.97;;;1.37;100.00
42385;BME280;28042;43.986;22.860;2022-12-29T00:53:58;102438.84;;;1.42;100.00
42385;BME280;28042;43.986;22.860;2022-12-29T00:56:23;102437.22;;;1.40;100.00
42385;BME280;28042;43.986;22.860;2022-12-29T00:58:48;102437.13;;;1.41;100.00
42385;BME280;28042;43.986;22.860;2022-12-29T01:01:14;102436.38;;;1.39;100.00
42385;BME280;28042;43.986;22.860;2022-12-29T01:03:39;102439.22;;;1.36;100.00
42385;BME280;28042;43.986;22.860;2022-12-29T01:06:08;102434.25;;;1.30;100.00
42385;BME280;28042;43.986;22.860;2022-12-29T01:08:34;102436.22;;;1.12;100.00
42385;BME280;28042;43.986;22.860;2022-12-29T01:11:00;102439.00;;;1.11;100.00
42385;BME280;28042;43.986;22.860;2022-12-29T01:13:26;102440.34;;;1.04;100.00
42385;BME280;28042;43.986;22.860;2022-12-29T01:15:51;102442.00;;;1.06;100.00
42385;BME280;28042;43.986;22.860;2022-12-29T01:18:17;102444.78;;;1.05;100.00
42385;BME280;28042;43.986;22.860;2022-12-29T01:20:42;102440.75;;;1.12;100.00
42385;BME280;28042;43.986;22.860;2022-12-29T01:23:08;102432.50;;;1.15;100.00
42385;BME280;28042;43.986;22.860;2022-12-29T01:25:33;102429.81;;;1.15;100.00
42385;BME280;28042;43.986;22.860;2022-12-29T01:27:58;102428.75;;;1.18;100.00
42385;BME280;28042;43.986;22.860;2022-12-29T01:30:24;102427.50;;;1.09;100.00
42385;BME280;28042;43.986;22.860;2022-12-29T01:32:49;102416.38;;;1.15;100.00
42385;BME280;28042;43.986;22.860;2022-12-29T01:35:14;102418.28;;;0.99;100.00
42385;BME280;28042;43.986;22.860;2022-12-29T01:37:39;102427.16;;;0.85;100.00
42385;BME280;28042;43.986;22.860;2022-12-29T01:40:05;102424.78;;;0.80;100.00
42385;BME280;28042;43.986;22.860;2022-12-29T01:42:30;102429.13;;;0.67;100.00
42385;BME280;28042;43.986;22.860;2022-12-29T01:44:57;102424.50;;;0.55;100.00
42385;BME280;28042;43.986;22.860;2022-12-29T01:49:52;102421.84;;;0.69;100.00
42385;BME280;28042;43.986;22.860;2022-12-29T01:52:19;102408.19;;;0.58;100.00
42385;BME280;28042;43.986;22.860;2022-12-29T01:54:46;102396.78;;;0.54;100.00
42385;BME280;28042;43.986;22.860;2022-12-29T01:57:15;102395.28;;;0.65;100.00
42385;BME280;28042;43.986;22.860;2022-12-29T01:59:43;102397.09;;;0.64;100.00
42385;BME280;28042;43.986;22.860;2022-12-29T02:02:11;102387.81;;;0.70;100.00
42385;BME280;28042;43.986;22.860;2022-12-29T02:04:38;102383.88;;;0.75;100.00
42385;BME280;28042;43.986;22.860;2022-12-29T02:07:07;102377.56;;;0.76;100.00
42385;BME280;28042;43.986;22.860;2022-12-29T02:09:34;102376.97;;;0.71;100.00
42385;BME280;28042;43.986;22.860;2022-12-29T02:12:00;102381.66;;;0.68;100.00
42385;BME280;28042;43.986;22.860;2022-12-29T02:14:25;102386.06;;;0.69;100.00
42385;BME280;28042;43.986;22.860;2022-12-29T02:22:00;102380.38;;;0.45;100.00
42385;BME280;28042;43.986;22.860;2022-12-29T02:37:41;102382.34;;;0.11;100.00
42385;BME280;28042;43.986;22.860;2022-12-29T02:40:13;102383.47;;;0.07;100.00
42385;BME280;28042;43.986;22.860;2022-12-29T02:42:44;102381.31;;;-0.02;100.00
42385;BME280;28042;43.986;22.860;2022-12-29T02:45:22;102383.22;;;-0.04;100.00
42385;BME280;28042;43.986;22.860;2022-12-29T02:47:54;102376.31;;;-0.08;100.00
42385;BME280;28042;43.986;22.860;2022-12-29T02:50:38;102381.16;;;-0.15;100.00
42385;BME280;28042;43.986;22.860;2022-12-29T02:53:13;102385.66;;;-0.15;100.00
42385;BME280;28042;43.986;22.860;2022-12-29T02:55:47;102375.44;;;-0.24;100.00
42385;BME280;28042;43.986;22.860;2022-12-29T02:58:16;102371.38;;;-0.32;100.00
42385;BME280;28042;43.986;22.860;2022-12-29T03:03:32;102375.78;;;-0.31;100.00
42385;BME280;28042;43.986;22.860;2022-12-29T03:11:08;102367.50;;;-0.42;100.00
42385;BME280;28042;43.986;22.860;2022-12-29T03:13:54;102372.16;;;-0.45;100.00
42385;BME280;28042;43.986;22.860;2022-12-29T03:16:47;102376.63;;;-0.46;100.00
42385;BME280;28042;43.986;22.860;2022-12-29T03:19:16;102371.47;;;-0.49;100.00
42385;BME280;28042;43.986;22.860;2022-12-29T03:21:48;102383.91;;;-0.48;100.00
42385;BME280;28042;43.986;22.860;2022-12-29T03:24:34;102384.25;;;-0.54;100.00
42385;BME280;28042;43.986;22.860;2022-12-29T03:27:02;102380.97;;;-0.59;100.00
42385;BME280;28042;43.986;22.860;2022-12-29T03:29:30;102379.06;;;-0.57;100.00
42385;BME280;28042;43.986;22.860;2022-12-29T03:31:56;102382.41;;;-0.69;100.00
42385;BME280;28042;43.986;22.860;2022-12-29T03:34:23;102382.28;;;-0.83;100.00
42385;BME280;28042;43.986;22.860;2022-12-29T03:36:51;102376.22;;;-0.87;100.00
42385;BME280;28042;43.986;22.860;2022-12-29T03:39:17;102380.88;;;-0.91;100.00
42385;BME280;28042;43.986;22.860;2022-12-29T03:41:43;102380.25;;;-0.96;100.00
42385;BME280;28042;43.986;22.860;2022-12-29T03:44:10;102377.75;;;-0.99;100.00
42385;BME280;28042;43.986;22.860;2022-12-29T03:46:36;102379.47;;;-0.98;100.00
42385;BME280;28042;43.986;22.860;2022-12-29T03:49:01;102380.19;;;-0.94;100.00
42385;BME280;28042;43.986;22.860;2022-12-29T03:51:26;102386.25;;;-0.91;100.00
42385;BME280;28042;43.986;22.860;2022-12-29T03:53:51;102384.19;;;-0.86;100.00
42385;BME280;28042;43.986;22.860;2022-12-29T03:56:17;102391.50;;;-0.89;100.00
42385;BME280;28042;43.986;22.860;2022-12-29T03:58:42;102392.41;;;-1.06;100.00
42385;BME280;28042;43.986;22.860;2022-12-29T04:01:07;102390.41;;;-1.18;100.00
42385;BME280;28042;43.986;22.860;2022-12-29T04:03:33;102393.25;;;-1.21;100.00
42385;BME280;28042;43.986;22.860;2022-12-29T04:05:58;102399.84;;;-1.11;100.00
42385;BME280;28042;43.986;22.860;2022-12-29T04:08:24;102402.97;;;-1.03;100.00
42385;BME280;28042;43.986;22.860;2022-12-29T04:10:49;102399.19;;;-0.99;100.00
42385;BME280;28042;43.986;22.860;2022-12-29T04:13:15;102405.50;;;-1.00;100.00
42385;BME280;28042;43.986;22.860;2022-12-29T04:15:41;102403.84;;;-1.02;100.00
42385;BME280;28042;43.986;22.860;2022-12-29T04:18:07;102399.34;;;-1.02;100.00
42385;BME280;28042;43.986;22.860;2022-12-29T04:20:32;102406.63;;;-1.04;100.00
42385;BME280;28042;43.986;22.860;2022-12-29T04:23:16;102408.81;;;-1.12;100.00
42385;BME280;28042;43.986;22.860;2022-12-29T04:25:44;102400.16;;;-1.17;100.00
42385;BME280;28042;43.986;22.860;2022-12-29T04:28:09;102401.97;;;-1.18;100.00
42385;BME280;28042;43.986;22.860;2022-12-29T04:30:35;102397.06;;;-1.09;100.00
42385;BME280;28042;43.986;22.860;2022-12-29T04:33:00;102401.78;;;-1.15;100.00
42385;BME280;28042;43.986;22.860;2022-12-29T04:35:25;102394.81;;;-1.17;100.00
42385;BME280;28042;43.986;22.860;2022-12-29T04:37:51;102394.47;;;-1.11;100.00
42385;BME280;28042;43.986;22.860;2022-12-29T04:40:16;102398.88;;;-1.10;100.00
42385;BME280;28042;43.986;22.860;2022-12-29T04:42:41;102405.19;;;-1.11;100.00
42385;BME280;28042;43.986;22.860;2022-12-29T04:45:07;102407.06;;;-1.13;100.00
42385;BME280;28042;43.986;22.860;2022-12-29T04:47:32;102407.16;;;-1.15;100.00
42385;BME280;28042;43.986;22.860;2022-12-29T04:49:57;102410.69;;;-1.14;100.00
42385;BME280;28042;43.986;22.860;2022-12-29T04:52:23;102409.06;;;-1.17;100.00
42385;BME280;28042;43.986;22.860;2022-12-29T04:54:48;102407.25;;;-1.16;100.00
42385;BME280;28042;43.986;22.860;2022-12-29T04:57:13;102412.50;;;-1.15;100.00
42385;BME280;28042;43.986;22.860;2022-12-29T04:59:39;102419.84;;;-1.18;100.00
42385;BME280;28042;43.986;22.860;2022-12-29T05:02:04;102426.94;;;-1.17;100.00
42385;BME280;28042;43.986;22.860;2022-12-29T05:04:29;102430.38;;;-1.15;100.00
42385;BME280;28042;43.986;22.860;2022-12-29T05:06:55;102428.66;;;-1.16;100.00
42385;BME280;28042;43.986;22.860;2022-12-29T05:09:20;102419.84;;;-1.18;100.00
42385;BME280;28042;43.986;22.860;2022-12-29T05:11:45;102425.38;;;-1.21;100.00
42385;BME280;28042;43.986;22.860;2022-12-29T05:14:10;102425.41;;;-1.23;100.00
42385;BME280;28042;43.986;22.860;2022-12-29T05:16:36;102434.31;;;-1.22;100.00
42385;BME280;28042;43.986;22.860;2022-12-29T05:19:01;102440.63;;;-1.23;100.00
42385;BME280;28042;43.986;22.860;2022-12-29T05:21:26;102438.97;;;-1.26;100.00
42385;BME280;28042;43.986;22.860;2022-12-29T05:23:52;102438.13;;;-1.26;100.00
42385;BME280;28042;43.986;22.860;2022-12-29T05:26:17;102444.41;;;-1.27;100.00
42385;BME280;28042;43.986;22.860;2022-12-29T05:28:42;102439.16;;;-1.29;100.00
42385;BME280;28042;43.986;22.860;2022-12-29T05:31:07;102436.38;;;-1.27;100.00
42385;BME280;28042;43.986;22.860;2022-12-29T05:33:33;102438.28;;;-1.29;100.00
42385;BME280;28042;43.986;22.860;2022-12-29T05:36:03;102434.78;;;-1.31;100.00
42385;BME280;28042;43.986;22.860;2022-12-29T05:38:29;102432.13;;;-1.31;100.00
42385;BME280;28042;43.986;22.860;2022-12-29T05:40:54;102434.00;;;-1.33;100.00
42385;BME280;28042;43.986;22.860;2022-12-29T05:43:19;102434.78;;;-1.31;100.00
42385;BME280;28042;43.986;22.860;2022-12-29T05:45:47;102438.59;;;-1.35;100.00
42385;BME280;28042;43.986;22.860;2022-12-29T05:48:13;102436.00;;;-1.37;100.00
42385;BME280;28042;43.986;22.860;2022-12-29T05:50:38;102436.94;;;-1.38;100.00
42385;BME280;28042;43.986;22.860;2022-12-29T05:53:03;102437.72;;;-1.36;100.00
42385;BME280;28042;43.986;22.860;2022-12-29T05:55:29;102435.75;;;-1.32;100.00
42385;BME280;28042;43.986;22.860;2022-12-29T05:57:54;102447.41;;;-1.33;100.00
42385;BME280;28042;43.986;22.860;2022-12-29T06:00:19;102443.94;;;-1.35;100.00
42385;BME280;28042;43.986;22.860;2022-12-29T06:02:45;102439.44;;;-1.35;100.00
42385;BME280;28042;43.986;22.860;2022-12-29T06:05:10;102443.78;;;-1.32;100.00
42385;BME280;28042;43.986;22.860;2022-12-29T06:07:35;102444.63;;;-1.32;100.00
42385;BME280;28042;43.986;22.860;2022-12-29T06:10:00;102447.25;;;-1.30;100.00
42385;BME280;28042;43.986;22.860;2022-12-29T06:12:26;102443.63;;;-1.29;100.00
42385;BME280;28042;43.986;22.860;2022-12-29T06:14:51;102445.19;;;-1.25;100.00
42385;BME280;28042;43.986;22.860;2022-12-29T06:17:16;102447.78;;;-1.24;100.00
42385;BME280;28042;43.986;22.860;2022-12-29T06:19:42;102447.78;;;-1.24;100.00
42385;BME280;28042;43.986;22.860;2022-12-29T06:22:07;102441.44;;;-1.21;100.00
42385;BME280;28042;43.986;22.860;2022-12-29T06:24:32;102449.38;;;-1.20;100.00
42385;BME280;28042;43.986;22.860;2022-12-29T06:26:58;102448.44;;;-1.19;100.00
42385;BME280;28042;43.986;22.860;2022-12-29T06:29:23;102453.69;;;-1.17;100.00
42385;BME280;28042;43.986;22.860;2022-12-29T06:31:48;102449.59;;;-1.07;100.00
42385;BME280;28042;43.986;22.860;2022-12-29T06:34:14;102455.69;;;-1.03;100.00
42385;BME280;28042;43.986;22.860;2022-12-29T06:36:39;102459.06;;;-1.00;100.00
42385;BME280;28042;43.986;22.860;2022-12-29T06:39:05;102446.28;;;-0.95;100.00
42385;BME280;28042;43.986;22.860;2022-12-29T06:41:30;102462.09;;;-0.90;100.00
42385;BME280;28042;43.986;22.860;2022-12-29T06:43:55;102458.38;;;-0.88;100.00
42385;BME280;28042;43.986;22.860;2022-12-29T06:46:21;102463.69;;;-0.86;100.00
42385;BME280;28042;43.986;22.860;2022-12-29T06:48:46;102466.28;;;-0.84;100.00
42385;BME280;28042;43.986;22.860;2022-12-29T06:51:11;102464.84;;;-0.74;100.00
42385;BME280;28042;43.986;22.860;2022-12-29T06:53:37;102464.94;;;-0.76;100.00
42385;BME280;28042;43.986;22.860;2022-12-29T06:56:03;102459.31;;;-0.71;100.00
42385;BME280;28042;43.986;22.860;2022-12-29T06:58:28;102463.72;;;-0.70;100.00
42385;BME280;28042;43.986;22.860;2022-12-29T07:00:54;102465.31;;;-0.66;100.00
42385;BME280;28042;43.986;22.860;2022-12-29T07:03:19;102465.00;;;-0.60;100.00
42385;BME280;28042;43.986;22.860;2022-12-29T07:05:44;102462.75;;;-0.52;100.00
42385;BME280;28042;43.986;22.860;2022-12-29T07:08:09;102467.69;;;-0.44;100.00
42385;BME280;28042;43.986;22.860;2022-12-29T07:10:35;102467.78;;;-0.46;100.00
42385;BME280;28042;43.986;22.860;2022-12-29T07:13:00;102476.28;;;-0.38;100.00
42385;BME280;28042;43.986;22.860;2022-12-29T07:15:26;102466.53;;;-0.23;100.00
42385;BME280;28042;43.986;22.860;2022-12-29T07:17:51;102463.69;;;-0.04;100.00
42385;BME280;28042;43.986;22.860;2022-12-29T07:20:16;102468.19;;;0.11;100.00
42385;BME280;28042;43.986;22.860;2022-12-29T07:22:42;102459.53;;;0.22;100.00
42385;BME280;28042;43.986;22.860;2022-12-29T07:25:07;102452.66;;;0.32;100.00
42385;BME280;28042;43.986;22.860;2022-12-29T07:27:33;102460.38;;;0.22;100.00
42385;BME280;28042;43.986;22.860;2022-12-29T07:29:58;102461.00;;;0.27;100.00
42385;BME280;28042;43.986;22.860;2022-12-29T07:32:23;102456.31;;;0.47;100.00
42385;BME280;28042;43.986;22.860;2022-12-29T07:34:49;102459.44;;;0.69;100.00
42385;BME280;28042;43.986;22.860;2022-12-29T07:37:14;102457.16;;;0.77;100.00
42385;BME280;28042;43.986;22.860;2022-12-29T07:39:40;102462.09;;;0.85;100.00
42385;BME280;28042;43.986;22.860;2022-12-29T07:42:05;102465.59;;;1.01;100.00
42385;BME280;28042;43.986;22.860;2022-12-29T07:44:30;102452.34;;;1.12;100.00
42385;BME280;28042;43.986;22.860;2022-12-29T07:46:56;102459.19;;;1.18;100.00
42385;BME280;28042;43.986;22.860;2022-12-29T07:49:21;102459.38;;;1.29;100.00
42385;BME280;28042;43.986;22.860;2022-12-29T07:51:46;102454.22;;;1.40;100.00
42385;BME280;28042;43.986;22.860;2022-12-29T07:54:12;102459.59;;;1.40;100.00
42385;BME280;28042;43.986;22.860;2022-12-29T07:56:37;102458.34;;;1.46;100.00
42385;BME280;28042;43.986;22.860;2022-12-29T07:59:03;102457.09;;;1.52;100.00
42385;BME280;28042;43.986;22.860;2022-12-29T08:01:28;102454.22;;;1.55;100.00
42385;BME280;28042;43.986;22.860;2022-12-29T08:03:53;102456.31;;;1.64;100.00
42385;BME280;28042;43.986;22.860;2022-12-29T08:06:19;102456.91;;;1.83;100.00
42385;BME280;28042;43.986;22.860;2022-12-29T08:08:45;102451.00;;;1.91;100.00
42385;BME280;28042;43.986;22.860;2022-12-29T08:11:10;102449.38;;;2.03;100.00
42385;BME280;28042;43.986;22.860;2022-12-29T08:13:35;102452.44;;;2.11;100.00
42385;BME280;28042;43.986;22.860;2022-12-29T08:16:01;102449.28;;;2.31;100.00
42385;BME280;28042;43.986;22.860;2022-12-29T08:18:26;102447.53;;;2.44;100.00
42385;BME280;28042;43.986;22.860;2022-12-29T08:20:51;102442.06;;;2.59;100.00
42385;BME280;28042;43.986;22.860;2022-12-29T08:23:17;102454.50;;;2.74;100.00
42385;BME280;28042;43.986;22.860;2022-12-29T08:25:42;102447.31;;;2.87;99.69
42385;BME280;28042;43.986;22.860;2022-12-29T08:28:07;102449.03;;;2.88;97.88
42385;BME280;28042;43.986;22.860;2022-12-29T08:30:32;102454.84;;;2.82;97.59
42385;BME280;28042;43.986;22.860;2022-12-29T08:32:58;102449.84;;;2.76;98.01
42385;BME280;28042;43.986;22.860;2022-12-29T08:35:23;102460.63;;;2.76;99.09
42385;BME280;28042;43.986;22.860;2022-12-29T08:37:48;102450.66;;;3.03;99.09
42385;BME280;28042;43.986;22.860;2022-12-29T08:40:14;102443.03;;;3.23;97.86
42385;BME280;28042;43.986;22.860;2022-12-29T08:42:39;102448.44;;;3.35;97.46
42385;BME280;28042;43.986;22.860;2022-12-29T08:45:05;102443.47;;;3.42;95.03
42385;BME280;28042;43.986;22.860;2022-12-29T08:47:30;102435.16;;;3.58;94.43
42385;BME280;28042;43.986;22.860;2022-12-29T08:49:56;102432.34;;;3.59;94.12
42385;BME280;28042;43.986;22.860;2022-12-29T08:52:21;102429.84;;;3.69;93.50
42385;BME280;28042;43.986;22.860;2022-12-29T08:54:46;102429.72;;;3.71;92.33
42385;BME280;28042;43.986;22.860;2022-12-29T08:57:12;102426.16;;;3.83;91.28
42385;BME280;28042;43.986;22.860;2022-12-29T08:59:37;102425.66;;;4.02;90.29
42385;BME280;28042;43.986;22.860;2022-12-29T09:02:02;102419.53;;;4.23;89.69
42385;BME280;28042;43.986;22.860;2022-12-29T09:04:28;102417.84;;;4.34;89.15
42385;BME280;28042;43.986;22.860;2022-12-29T09:06:53;102416.81;;;4.47;88.00
42385;BME280;28042;43.986;22.860;2022-12-29T09:09:18;102409.34;;;4.51;85.58
42385;BME280;28042;43.986;22.860;2022-12-29T09:11:44;102404.00;;;4.62;85.06
42385;BME280;28042;43.986;22.860;2022-12-29T09:14:10;102407.72;;;4.72;84.50
42385;BME280;28042;43.986;22.860;2022-12-29T09:16:35;102403.69;;;4.78;84.40
42385;BME280;28042;43.986;22.860;2022-12-29T09:19:01;102405.94;;;4.60;84.03
42385;BME280;28042;43.986;22.860;2022-12-29T09:21:26;102400.50;;;4.49;84.67
42385;BME280;28042;43.986;22.860;2022-12-29T09:23:52;102394.34;;;4.47;85.33
42385;BME280;28042;43.986;22.860;2022-12-29T09:26:17;102379.94;;;4.70;85.20
42385;BME280;28042;43.986;22.860;2022-12-29T09:28:42;102378.91;;;4.95;84.15
42385;BME280;28042;43.986;22.860;2022-12-29T09:31:09;102374.84;;;5.01;81.49
42385;BME280;28042;43.986;22.860;2022-12-29T09:33:35;102372.41;;;4.98;81.79
42385;BME280;28042;43.986;22.860;2022-12-29T09:36:00;102373.13;;;5.11;81.75
42385;BME280;28042;43.986;22.860;2022-12-29T09:38:26;102365.78;;;5.24;80.57
42385;BME280;28042;43.986;22.860;2022-12-29T09:40:52;102365.28;;;5.42;79.75
42385;BME280;28042;43.986;22.860;2022-12-29T09:48:23;102346.84;;;5.24;80.48
42385;BME280;28042;43.986;22.860;2022-12-29T09:50:52;102340.06;;;5.30;80.05
42385;BME280;28042;43.986;22.860;2022-12-29T09:53:39;102339.06;;;5.53;79.79
42385;BME280;28042;43.986;22.860;2022-12-29T09:56:07;102337.47;;;5.51;78.96
42385;BME280;28042;43.986;22.860;2022-12-29T10:01:05;102327.31;;;5.86;77.51
42385;BME280;28042;43.986;22.860;2022-12-29T10:23:53;102302.50;;;6.13;75.23
42385;BME280;28042;43.986;22.860;2022-12-29T10:26:21;102307.78;;;6.26;74.53
42385;BME280;28042;43.986;22.860;2022-12-29T10:33:59;102294.00;;;6.60;71.96
42385;BME280;28042;43.986;22.860;2022-12-29T10:36:40;102286.28;;;6.55;72.40
42385;BME280;28042;43.986;22.860;2022-12-29T10:44:31;102273.31;;;6.79;71.53
42385;BME280;28042;43.986;22.860;2022-12-29T10:46:59;102267.66;;;6.92;71.94
42385;BME280;28042;43.986;22.860;2022-12-29T10:49:26;102268.03;;;7.08;71.13
42385;BME280;28042;43.986;22.860;2022-12-29T10:51:54;102268.66;;;7.22;70.51
42385;BME280;28042;43.986;22.860;2022-12-29T10:54:29;102266.69;;;7.03;70.62
42385;BME280;28042;43.986;22.860;2022-12-29T10:59:24;102259.03;;;7.48;70.60
42385;BME280;28042;43.986;22.860;2022-12-29T11:01:53;102257.00;;;7.41;68.92
42385;BME280;28042;43.986;22.860;2022-12-29T11:06:47;102250.63;;;7.21;69.39
42385;BME280;28042;43.986;22.860;2022-12-29T11:09:19;102246.38;;;7.28;69.66
42385;BME280;28042;43.986;22.860;2022-12-29T11:11:48;102244.31;;;7.11;70.23
42385;BME280;28042;43.986;22.860;2022-12-29T11:14:14;102233.38;;;6.91;70.66
42385;BME280;28042;43.986;22.860;2022-12-29T11:16:42;102226.56;;;6.97;71.46
42385;BME280;28042;43.986;22.860;2022-12-29T11:19:22;102235.97;;;6.93;71.36
42385;BME280;28042;43.986;22.860;2022-12-29T11:21:48;102229.25;;;6.87;71.33
42385;BME280;28042;43.986;22.860;2022-12-29T11:26:45;102221.69;;;6.91;71.18
42385;BME280;28042;43.986;22.860;2022-12-29T11:29:22;102220.81;;;6.90;70.72
42385;BME280;28042;43.986;22.860;2022-12-29T11:31:51;102214.91;;;7.06;70.85
42385;BME280;28042;43.986;22.860;2022-12-29T11:34:23;102207.84;;;6.94;70.95
42385;BME280;28042;43.986;22.860;2022-12-29T11:36:50;102211.50;;;7.14;70.67
42385;BME280;28042;43.986;22.860;2022-12-29T11:41:57;102201.06;;;7.19;70.98
42385;BME280;28042;43.986;22.860;2022-12-29T11:44:23;102192.38;;;7.25;70.65
42385;BME280;28042;43.986;22.860;2022-12-29T11:46:49;102190.66;;;7.24;70.57
42385;BME280;28042;43.986;22.860;2022-12-29T11:49:23;102190.66;;;7.24;71.33
42385;BME280;28042;43.986;22.860;2022-12-29T11:51:50;102185.53;;;7.30;71.93
42385;BME280;28042;43.986;22.860;2022-12-29T11:54:19;102181.53;;;7.44;71.43
42385;BME280;28042;43.986;22.860;2022-12-29T11:56:46;102176.72;;;7.48;71.98
42385;BME280;28042;43.986;22.860;2022-12-29T12:01:53;102172.66;;;7.23;73.56
42385;BME280;28042;43.986;22.860;2022-12-29T12:04:20;102173.50;;;7.14;73.03
42385;BME280;28042;43.986;22.860;2022-12-29T12:06:48;102181.41;;;6.86;74.44
42385;BME280;28042;43.986;22.860;2022-12-29T12:12:20;102158.72;;;6.87;75.48
42385;BME280;28042;43.986;22.860;2022-12-29T12:14:58;102161.88;;;6.92;75.97
42385;BME280;28042;43.986;22.860;2022-12-29T12:17:38;102179.59;;;6.96;74.87
42385;BME280;28042;43.986;22.860;2022-12-29T12:25:38;102169.75;;;6.95;76.63
42385;BME280;28042;43.986;22.860;2022-12-29T12:30:33;102163.41;;;6.85;76.04
42385;BME280;28042;43.986;22.860;2022-12-29T12:33:03;102156.84;;;6.78;77.72
42385;BME280;28042;43.986;22.860;2022-12-29T12:53:40;102146.66;;;6.40;84.05
42385;BME280;28042;43.986;22.860;2022-12-29T12:58:40;102146.34;;;6.64;83.10
42385;BME280;28042;43.986;22.860;2022-12-29T13:01:15;102148.59;;;6.89;83.32
42385;BME280;28042;43.986;22.860;2022-12-29T13:03:50;102152.19;;;6.99;82.68
42385;BME280;28042;43.986;22.860;2022-12-29T13:09:13;102152.00;;;6.82;84.32
42385;BME280;28042;43.986;22.860;2022-12-29T13:14:12;102151.59;;;6.56;84.92
42385;BME280;28042;43.986;22.860;2022-12-29T13:16:45;102151.88;;;6.53;85.40
42385;BME280;28042;43.986;22.860;2022-12-29T13:19:19;102144.53;;;6.74;84.68
42385;BME280;28042;43.986;22.860;2022-12-29T13:32:43;102154.00;;;6.89;84.22
42385;BME280;28042;43.986;22.860;2022-12-29T13:35:17;102151.56;;;6.86;84.28
42385;BME280;28042;43.986;22.860;2022-12-29T13:37:50;102142.81;;;6.73;84.48
42385;BME280;28042;43.986;22.860;2022-12-29T13:40:18;102144.53;;;6.74;85.33
42385;BME280;28042;43.986;22.860;2022-12-29T13:42:47;102150.59;;;6.57;86.48
42385;BME280;28042;43.986;22.860;2022-12-29T13:45:15;102144.31;;;6.56;87.17
42385;BME280;28042;43.986;22.860;2022-12-29T13:50:17;102153.31;;;6.57;87.24
42385;BME280;28042;43.986;22.860;2022-12-29T13:52:44;102153.31;;;6.57;88.18
42385;BME280;28042;43.986;22.860;2022-12-29T13:57:48;102159.84;;;6.44;89.32
42385;BME280;28042;43.986;22.860;2022-12-29T14:00:21;102158.38;;;6.40;89.28
42385;BME280;28042;43.986;22.860;2022-12-29T14:05:41;102148.19;;;6.54;89.16
42385;BME280;28042;43.986;22.860;2022-12-29T14:08:15;102146.84;;;6.48;89.19
42385;BME280;28042;43.986;22.860;2022-12-29T14:10:50;102148.72;;;6.47;89.62
42385;BME280;28042;43.986;22.860;2022-12-29T14:13:23;102148.25;;;6.42;89.94
42385;BME280;28042;43.986;22.860;2022-12-29T14:15:56;102144.97;;;6.39;90.70
42385;BME280;28042;43.986;22.860;2022-12-29T14:21:25;102134.28;;;6.16;91.62
42385;BME280;28042;43.986;22.860;2022-12-29T14:23:56;102123.31;;;6.18;91.60
42385;BME280;28042;43.986;22.860;2022-12-29T14:28:54;102131.91;;;6.02;92.90
42385;BME280;28042;43.986;22.860;2022-12-29T14:39:03;102131.16;;;5.79;95.33
42385;BME280;28042;43.986;22.860;2022-12-29T14:41:30;102129.50;;;5.67;97.00
42385;BME280;28042;43.986;22.860;2022-12-29T14:43:58;102134.06;;;5.66;97.99
42385;BME280;28042;43.986;22.860;2022-12-29T14:46:25;102131.53;;;5.54;98.46
42385;BME280;28042;43.986;22.860;2022-12-29T14:48:54;102130.09;;;5.38;99.34
42385;BME280;28042;43.986;22.860;2022-12-29T14:51:25;102137.03;;;5.31;99.73
42385;BME280;28042;43.986;22.860;2022-12-29T14:53:52;102144.09;;;5.23;100.00
42385;BME280;28042;43.986;22.860;2022-12-29T14:56:18;102141.53;;;5.10;100.00
42385;BME280;28042;43.986;22.860;2022-12-29T15:04:13;102138.97;;;4.86;100.00
42385;BME280;28042;43.986;22.860;2022-12-29T15:06:39;102140.09;;;4.83;100.00
42385;BME280;28042;43.986;22.860;2022-12-29T15:14:25;102141.47;;;4.67;100.00
42385;BME280;28042;43.986;22.860;2022-12-29T15:16:50;102144.91;;;4.58;100.00
42385;BME280;28042;43.986;22.860;2022-12-29T15:19:25;102141.59;;;4.54;100.00
42385;BME280;28042;43.986;22.860;2022-12-29T15:21:51;102139.63;;;4.56;100.00
42385;BME280;28042;43.986;22.860;2022-12-29T15:24:17;102147.22;;;4.51;100.00